Time;durP1;ratioP1;P1;durP2;ratioP2;P2;SDS_P1;SDS_P2;PMS_P1;PMS_P2;Temp;Humidity;BMP_temperature;BMP_pressure;BME280_temperature;BME280_humidity;BME280_pressure;Samples;Min_cycle;Max_cycle;Signal;HPM_P1;HPM_P2
2023/01/14 00:01:22;;;;;;;17.83;3.10;;;;;;;4.48;100.00;101397.78;5089720;28;20013;-90
2023/01/14 00:03:51;;;;;;;26.85;3.10;;;;;;;4.40;100.00;101406.75;5060198;28;20036;-90
2023/01/14 00:06:19;;;;;;;28.40;3.15;;;;;;;4.36;100.00;101406.34;5046954;28;20033;-90
2023/01/14 00:08:44;;;;;;;21.48;3.15;;;;;;;4.31;100.00;101405.31;5062427;28;20040;-91
2023/01/14 00:11:12;;;;;;;26.53;2.93;;;;;;;4.42;100.00;101414.50;5076325;28;20479;-88
2023/01/14 00:13:39;;;;;;;26.90;3.88;;;;;;;4.34;100.00;101413.69;5069361;28;20021;-89
2023/01/14 00:16:06;;;;;;;23.07;2.70;;;;;;;4.28;100.00;101414.50;5053251;28;20025;-89
2023/01/14 00:18:42;;;;;;;21.52;3.33;;;;;;;4.22;100.00;101423.25;5052176;28;20029;-89
2023/01/14 00:21:13;;;;;;;21.63;3.22;;;;;;;4.15;100.00;101404.66;5052214;28;20028;-89
2023/01/14 00:23:39;;;;;;;21.63;2.70;;;;;;;4.14;100.00;101415.50;5033810;28;20051;-89
2023/01/14 00:26:09;;;;;;;21.10;2.78;;;;;;;3.98;100.00;101393.63;5034288;28;20021;-89
2023/01/14 00:28:35;;;;;;;25.27;3.47;;;;;;;4.18;100.00;101428.16;5052066;28;20025;-89
2023/01/14 00:31:23;;;;;;;24.87;2.77;;;;;;;4.13;100.00;101419.16;5055379;28;20409;-89
2023/01/14 00:33:49;;;;;;;23.83;2.45;;;;;;;4.18;100.00;101424.69;5052556;28;20456;-89
2023/01/14 00:36:17;;;;;;;26.75;3.08;;;;;;;4.09;100.00;101419.56;5052220;28;20131;-89
2023/01/14 00:38:43;;;;;;;25.75;2.40;;;;;;;3.94;100.00;101398.47;5051967;28;20491;-89
2023/01/14 00:41:11;;;;;;;19.67;2.47;;;;;;;3.83;100.00;101390.31;5051756;28;20048;-89
2023/01/14 00:43:39;;;;;;;21.30;2.92;;;;;;;3.94;100.00;101418.91;5052353;28;20033;-89
2023/01/14 00:46:06;;;;;;;31.60;3.30;;;;;;;3.89;100.00;101410.72;5052215;28;20473;-89
2023/01/14 00:48:33;;;;;;;18.33;2.20;;;;;;;3.85;100.00;101404.16;5042355;28;20048;-89
2023/01/14 00:50:58;;;;;;;26.55;3.25;;;;;;;3.72;100.00;101397.81;5065121;28;20021;-89
2023/01/14 00:53:24;;;;;;;22.63;2.50;;;;;;;3.75;100.00;101397.41;5059540;28;20047;-89
2023/01/14 00:55:50;;;;;;;21.13;2.80;;;;;;;3.70;100.00;101391.88;5051716;28;20025;-89
2023/01/14 00:58:15;;;;;;;34.73;3.10;;;;;;;3.77;100.00;101395.38;5051553;28;20039;-89
2023/01/14 01:00:40;;;;;;;28.40;3.37;;;;;;;3.76;100.00;101392.91;5060725;28;20059;-88
2023/01/14 01:03:06;;;;;;;30.30;3.30;;;;;;;3.85;100.00;101409.47;5071425;28;20453;-89
2023/01/14 01:05:36;;;;;;;32.17;3.50;;;;;;;3.67;100.00;101394.91;5071312;28;20020;-88
2023/01/14 01:08:04;;;;;;;29.30;2.97;;;;;;;3.70;100.00;101405.13;5070646;28;20108;-89
2023/01/14 01:10:30;;;;;;;26.70;3.27;;;;;;;3.68;100.00;101395.75;5071406;28;20034;-89
2023/01/14 01:12:55;;;;;;;30.23;3.13;;;;;;;3.79;100.00;101427.81;5060767;28;20662;-89
2023/01/14 01:15:21;;;;;;;32.40;3.60;;;;;;;3.73;100.00;101418.00;5051098;28;20025;-88
2023/01/14 01:17:46;;;;;;;27.63;2.97;;;;;;;3.73;100.00;101423.31;5052855;28;20391;-88
2023/01/14 01:20:11;;;;;;;39.00;3.67;;;;;;;3.79;100.00;101411.06;5062542;28;20395;-88
2023/01/14 01:22:37;;;;;;;31.70;3.90;;;;;;;3.63;100.00;101399.00;5052639;28;20025;-89
2023/01/14 01:25:02;;;;;;;26.03;3.57;;;;;;;3.81;100.00;101421.50;5074713;28;20017;-89
2023/01/14 01:27:28;;;;;;;29.87;3.20;;;;;;;3.70;100.00;101407.78;5062079;28;20063;-89
2023/01/14 01:29:53;;;;;;;31.08;3.08;;;;;;;3.63;100.00;101399.00;5056208;28;20120;-89
2023/01/14 01:32:19;;;;;;;30.40;3.03;;;;;;;3.64;100.00;101406.75;5065411;28;20051;-89
2023/01/14 01:34:45;;;;;;;34.28;3.28;;;;;;;3.70;100.00;101417.59;5075726;28;20056;-88
2023/01/14 01:37:11;;;;;;;35.00;4.37;;;;;;;3.69;100.00;101422.06;5051205;28;20029;-89
2023/01/14 01:39:36;;;;;;;40.20;4.27;;;;;;;3.71;100.00;101419.22;5050988;28;20052;-88
2023/01/14 01:42:02;;;;;;;30.70;3.35;;;;;;;3.57;100.00;101394.47;5050781;28;20040;-89
2023/01/14 01:44:27;;;;;;;43.87;4.47;;;;;;;3.67;100.00;101418.78;5050823;28;20029;-88
2023/01/14 01:46:52;;;;;;;31.80;3.87;;;;;;;3.41;100.00;101383.19;5062788;28;20115;-89
2023/01/14 01:49:23;;;;;;;35.17;4.43;;;;;;;3.58;100.00;101406.72;5070140;28;20055;-89
2023/01/14 01:51:54;;;;;;;37.25;3.20;;;;;;;3.65;100.00;101410.22;5071305;28;20104;-88
2023/01/14 01:54:24;;;;;;;28.38;3.30;;;;;;;3.64;100.00;101406.75;5059379;28;20028;-88
2023/01/14 01:56:50;;;;;;;34.42;3.70;;;;;;;3.47;100.00;101389.53;5050657;28;20040;-89
2023/01/14 01:59:20;;;;;;;39.73;3.73;;;;;;;3.55;100.00;101402.63;5065813;28;20025;-89
2023/01/14 02:01:47;;;;;;;30.10;2.97;;;;;;;3.55;100.00;101409.75;5070528;28;20270;-88
2023/01/14 02:04:13;;;;;;;32.08;4.65;;;;;;;3.61;100.00;101422.22;5060162;28;20087;-88
2023/01/14 02:06:38;;;;;;;33.80;3.25;;;;;;;3.43;100.00;101388.28;5050480;28;20036;-89
2023/01/14 02:09:05;;;;;;;31.47;3.30;;;;;;;3.43;100.00;101385.63;5068557;28;20029;-88
2023/01/14 02:11:46;;;;;;;32.35;3.65;;;;;;;3.54;100.00;101405.47;5062190;28;20029;-88
2023/01/14 02:14:46;;;;;;;31.52;3.40;;;;;;;3.51;100.00;101404.03;5053389;28;20037;-89
2023/01/14 02:17:18;;;;;;;32.65;3.88;;;;;;;3.44;100.00;101377.50;5035742;28;20064;-88
2023/01/14 02:19:59;;;;;;;29.60;3.67;;;;;;;3.46;100.00;101379.94;5055137;28;20110;-88
2023/01/14 02:22:56;;;;;;;42.73;3.87;;;;;;;3.36;100.00;101361.75;5053900;28;20068;-88
2023/01/14 02:30:42;;;;;;;29.67;2.58;;;;;;;3.39;100.00;101350.78;5430472;23;20040;-88
2023/01/14 02:33:07;;;;;;;35.90;2.85;;;;;;;3.42;100.00;101342.44;5054612;28;20031;-88
2023/01/14 02:35:54;;;;;;;46.27;3.43;;;;;;;3.36;100.00;101324.69;5073744;28;20032;-89
2023/01/14 02:38:26;;;;;;;34.33;3.78;;;;;;;3.49;100.00;101337.97;5054541;28;20032;-88
2023/01/14 02:41:18;;;;;;;39.35;4.00;;;;;;;3.47;100.00;101318.81;5058026;28;20492;-88
2023/01/14 02:44:10;;;;;;;29.67;3.80;;;;;;;3.42;100.00;101308.00;5055783;28;20052;-88
2023/01/14 02:46:58;;;;;;;31.38;3.13;;;;;;;3.45;100.00;101320.03;5060154;28;20020;-88
2023/01/14 02:49:29;;;;;;;30.50;3.25;;;;;;;3.21;100.00;101278.97;5078459;28;20044;-88
2023/01/14 02:51:58;;;;;;;32.90;3.80;;;;;;;3.42;100.00;101321.25;5079100;28;20074;-89
2023/01/14 02:54:24;;;;;;;29.13;3.97;;;;;;;3.37;100.00;101313.06;5072118;28;20111;-89
2023/01/14 02:56:51;;;;;;;36.07;3.80;;;;;;;3.33;100.00;101307.34;5055473;28;20085;-88
2023/01/14 02:59:35;;;;;;;31.33;4.30;;;;;;;3.48;100.00;101322.28;5063266;28;20016;-88
2023/01/14 03:02:06;;;;;;;32.05;2.67;;;;;;;3.51;100.00;101318.41;5081226;28;20072;-89
2023/01/14 03:04:57;;;;;;;29.90;3.17;;;;;;;3.39;100.00;101302.25;5074129;28;20028;-88
2023/01/14 03:07:35;;;;;;;41.65;4.00;;;;;;;3.51;100.00;101316.59;5052506;28;20032;-88
2023/01/14 03:10:24;;;;;;;35.28;3.25;;;;;;;3.56;100.00;101305.38;5053650;28;20040;-88
2023/01/14 03:13:09;;;;;;;42.63;3.22;;;;;;;3.55;100.00;101298.44;5035663;28;20095;-88
2023/01/14 03:15:54;;;;;;;32.53;3.40;;;;;;;3.55;100.00;101293.16;5053160;28;20086;-89
2023/01/14 03:18:47;;;;;;;34.33;3.33;;;;;;;3.56;100.00;101292.13;5053840;28;20511;-89
2023/01/14 03:21:20;;;;;;;32.57;3.97;;;;;;;3.58;100.00;101280.31;5053522;28;20028;-89
2023/01/14 03:24:00;;;;;;;29.88;3.97;;;;;;;3.58;100.00;101263.59;5101005;22;20049;-88
2023/01/14 03:26:31;;;;;;;34.88;3.92;;;;;;;3.70;100.00;101274.44;5014384;28;20065;-90
2023/01/14 03:29:01;;;;;;;34.03;3.38;;;;;;;3.66;100.00;101278.50;5032960;28;20025;-88
2023/01/14 03:31:30;;;;;;;35.60;3.60;;;;;;;3.75;100.00;101278.13;5033022;28;20087;-88
2023/01/14 03:34:12;;;;;;;36.40;3.37;;;;;;;3.64;100.00;101247.72;5030627;28;20037;-90
2023/01/14 03:36:39;;;;;;;35.37;3.50;;;;;;;3.74;100.00;101254.47;5031035;28;20300;-91
2023/01/14 03:39:13;;;;;;;37.72;3.83;;;;;;;3.76;100.00;101250.59;5032613;28;20099;-90
2023/01/14 03:44:38;;;;;;;27.27;3.20;;;;;;;3.81;100.00;101257.94;5032675;28;20077;-89
2023/01/14 03:47:04;;;;;;;36.15;3.13;;;;;;;3.93;100.00;101266.91;5032191;28;20066;-89
2023/01/14 03:49:29;;;;;;;29.77;3.43;;;;;;;3.98;100.00;101268.16;5031809;28;20045;-89
2023/01/14 03:52:03;;;;;;;35.85;3.85;;;;;;;4.01;100.00;101273.88;5032884;28;20112;-89
2023/01/14 03:54:52;;;;;;;29.38;4.05;;;;;;;4.02;100.00;101256.13;5032674;28;20026;-89
2023/01/14 03:57:35;;;;;;;36.63;3.23;;;;;;;4.02;100.00;101248.16;4998226;28;20487;-90
2023/01/14 04:00:08;;;;;;;37.85;3.20;;;;;;;4.14;100.00;101232.47;5019099;28;20021;-89
2023/01/14 04:02:35;;;;;;;33.72;3.05;;;;;;;3.93;100.00;101203.28;5030270;28;20079;-90
2023/01/14 04:05:01;;;;;;;34.50;3.00;;;;;;;4.03;100.00;101216.13;5032150;28;20037;-90
2023/01/14 04:07:26;;;;;;;25.15;2.33;;;;;;;3.95;100.00;101200.44;5031560;28;20028;-90
2023/01/14 04:09:52;;;;;;;37.13;2.90;;;;;;;4.17;100.00;101224.09;5032602;28;20029;-89
2023/01/14 04:12:17;;;;;;;42.60;3.37;;;;;;;4.21;100.00;101220.00;5032202;28;20025;-90
2023/01/14 04:17:27;;;;;;;33.20;2.57;;;;;;;4.16;100.00;101188.78;5031082;28;20048;-90
2023/01/14 04:19:52;;;;;;;31.45;2.50;;;;;;;4.13;100.00;101188.41;5031662;28;20049;-89
2023/01/14 04:22:17;;;;;;;30.87;3.53;;;;;;;4.13;100.00;101189.19;5034795;28;20014;-89
2023/01/14 04:24:42;;;;;;;29.70;2.53;;;;;;;4.24;100.00;101185.94;5045224;28;20037;-89
2023/01/14 04:27:08;;;;;;;32.03;2.97;;;;;;;4.33;100.00;101194.50;5032378;28;20025;-89
2023/01/14 04:29:33;;;;;;;32.97;3.50;;;;;;;4.31;100.00;101185.91;5048855;28;20025;-89
2023/01/14 04:31:59;;;;;;;28.33;2.90;;;;;;;4.14;100.00;101160.84;5042723;28;20064;-89
2023/01/14 04:34:24;;;;;;;31.00;3.13;;;;;;;4.29;100.00;101173.91;5031676;28;20455;-89
2023/01/14 04:36:49;;;;;;;38.70;3.87;;;;;;;4.13;100.00;101144.09;5028420;28;20018;-89
2023/01/14 04:39:14;;;;;;;43.43;4.20;;;;;;;4.12;100.00;101145.13;5029418;28;20535;-90
2023/01/14 04:44:24;;;;;;;28.35;2.92;;;;;;;4.13;100.00;101154.72;5031941;28;20103;-89
2023/01/14 04:46:49;;;;;;;31.07;2.47;;;;;;;4.16;100.00;101158.81;5031461;28;20412;-89
2023/01/14 04:49:14;;;;;;;32.83;3.90;;;;;;;4.14;100.00;101153.69;5032033;28;20052;-90
2023/01/14 04:51:39;;;;;;;21.23;2.22;;;;;;;4.06;100.00;101152.06;5013660;28;20021;-89
2023/01/14 04:54:05;;;;;;;21.17;2.33;;;;;;;4.16;100.00;101156.97;5031325;28;20112;-89
2023/01/14 04:56:30;;;;;;;29.57;2.83;;;;;;;4.08;100.00;101135.97;5028485;28;20037;-90
2023/01/14 04:59:01;;;;;;;22.40;3.17;;;;;;;4.17;100.00;101147.97;5028948;28;20026;-89
2023/01/14 05:01:26;;;;;;;31.85;2.97;;;;;;;4.15;100.00;101146.56;5030178;28;20105;-89
2023/01/14 05:03:52;;;;;;;26.70;2.77;;;;;;;4.18;100.00;101146.16;5031109;28;20129;-89
2023/01/14 05:06:17;;;;;;;23.80;2.35;;;;;;;4.18;100.00;101135.56;5030951;28;20029;-90
2023/01/14 05:08:43;;;;;;;26.17;2.67;;;;;;;4.25;100.00;101138.97;5030706;28;20029;-89
2023/01/14 05:11:08;;;;;;;19.60;1.97;;;;;;;4.13;100.00;101108.81;5029782;28;20022;-89
2023/01/14 05:13:33;;;;;;;17.98;2.03;;;;;;;4.03;100.00;101094.13;5030945;28;20604;-90
2023/01/14 05:16:02;;;;;;;22.63;2.37;;;;;;;4.15;100.00;101099.63;5031288;28;20100;-89
2023/01/14 05:18:27;;;;;;;26.70;2.63;;;;;;;4.22;100.00;101105.75;5031182;28;20028;-89
2023/01/14 05:20:53;;;;;;;24.00;2.50;;;;;;;4.24;100.00;101116.97;5030773;28;20284;-89
2023/01/14 05:23:18;;;;;;;20.87;2.53;;;;;;;4.24;100.00;101093.09;5033926;28;20038;-89
2023/01/14 05:25:45;;;;;;;36.53;3.57;;;;;;;4.37;100.00;101094.88;5043057;28;20041;-89
2023/01/14 05:28:13;;;;;;;27.25;3.40;;;;;;;4.43;100.00;101079.97;5047552;28;20466;-89
2023/01/14 05:30:38;;;;;;;26.10;3.17;;;;;;;4.46;100.00;101087.50;5037859;28;20045;-89
2023/01/14 05:33:04;;;;;;;24.50;2.00;;;;;;;4.48;100.00;101080.13;5034846;28;20030;-90
2023/01/14 05:35:31;;;;;;;23.33;2.25;;;;;;;4.46;100.00;101078.72;5031917;28;20373;-89
2023/01/14 05:37:56;;;;;;;24.10;2.22;;;;;;;4.44;100.00;101073.63;5030139;28;20561;-90
2023/01/14 05:40:21;;;;;;;20.63;2.60;;;;;;;4.38;100.00;101042.63;5031455;28;20048;-89
2023/01/14 05:45:51;;;;;;;20.55;1.92;;;;;;;4.46;100.00;101038.91;5024531;28;20421;-89
2023/01/14 05:50:53;;;;;;;27.70;3.10;;;;;;;4.58;100.00;101033.75;5268814;22;20315;-89
2023/01/14 05:53:22;;;;;;;25.52;2.58;;;;;;;4.60;100.00;101021.88;5074999;28;20012;-89
2023/01/14 05:55:48;;;;;;;27.02;2.50;;;;;;;4.60;100.00;101010.47;5055492;28;20550;-89
2023/01/14 05:58:14;;;;;;;29.90;3.00;;;;;;;4.68;100.00;101000.41;5037655;28;20033;-88
2023/01/14 06:06:37;;;;;;;24.03;2.50;;;;;;;4.77;100.00;100994.81;5036094;28;20032;-88
2023/01/14 06:09:09;;;;;;;23.23;2.65;;;;;;;4.70;100.00;100971.81;5052976;28;20108;-89
2023/01/14 06:11:35;;;;;;;20.52;2.15;;;;;;;4.72;100.00;100968.13;5054619;28;20067;-89
2023/01/14 06:14:02;;;;;;;28.55;2.72;;;;;;;4.81;100.00;100972.97;5036748;28;20029;-89
2023/01/14 06:16:31;;;;;;;23.00;2.00;;;;;;;4.87;100.00;100973.94;5056679;28;20063;-90
2023/01/14 06:18:57;;;;;;;19.63;1.80;;;;;;;4.87;100.00;100965.97;5052421;28;20674;-87
2023/01/14 06:21:29;;;;;;;24.45;2.72;;;;;;;4.84;100.00;100955.78;5054264;28;20017;-88
2023/01/14 06:23:56;;;;;;;16.55;1.83;;;;;;;4.85;100.00;100949.44;5036407;28;20025;-87
2023/01/14 06:26:35;;;;;;;25.73;2.20;;;;;;;4.85;100.00;100938.81;5051443;28;20029;-87
2023/01/14 06:29:05;;;;;;;23.20;2.40;;;;;;;4.93;100.00;100935.88;5049507;28;20378;-87
2023/01/14 06:31:32;;;;;;;15.45;1.55;;;;;;;4.96;100.00;100942.59;5054552;28;20025;-91
2023/01/14 06:34:02;;;;;;;20.13;2.10;;;;;;;4.96;100.00;100932.78;5040658;28;20116;-94
2023/01/14 06:36:34;;;;;;;25.48;2.13;;;;;;;4.67;100.00;100878.50;5050557;28;20033;-88
2023/01/14 06:39:00;;;;;;;20.50;2.20;;;;;;;4.67;100.00;100866.06;5045908;28;20036;-88
2023/01/14 06:41:25;;;;;;;20.60;2.53;;;;;;;4.68;100.00;100867.69;5060220;28;20025;-88
2023/01/14 06:43:51;;;;;;;24.55;2.47;;;;;;;4.91;100.00;100891.97;5054551;28;20031;-91
2023/01/14 06:46:17;;;;;;;25.97;2.10;;;;;;;4.88;100.00;100876.47;5053124;28;20087;-92
2023/01/14 06:48:43;;;;;;;19.05;2.03;;;;;;;4.84;100.00;100865.50;5056215;28;20033;-89
2023/01/14 06:51:12;;;;;;;17.35;2.10;;;;;;;5.02;100.00;100882.50;5054904;28;20130;-88
2023/01/14 06:53:37;;;;;;;18.57;2.60;;;;;;;4.81;100.00;100850.81;5054541;28;20095;-87
2023/01/14 06:56:07;;;;;;;22.80;2.50;;;;;;;5.03;100.00;100879.59;5052423;28;20790;-88
2023/01/14 06:58:44;;;;;;;22.00;2.65;;;;;;;4.87;100.00;100846.47;5052879;28;20031;-88
2023/01/14 07:01:09;;;;;;;18.73;2.13;;;;;;;5.04;100.00;100875.13;5053673;28;20039;-89
2023/01/14 07:03:44;;;;;;;17.65;2.03;;;;;;;4.79;100.00;100820.19;5034884;28;20063;-89
2023/01/14 07:06:13;;;;;;;18.23;1.90;;;;;;;4.76;100.00;100825.94;5034819;28;20370;-90
2023/01/14 07:08:38;;;;;;;26.20;3.00;;;;;;;4.70;100.00;100806.38;5052221;28;20362;-90
2023/01/14 07:14:12;;;;;;;25.63;3.33;;;;;;;4.76;100.00;100810.84;5027500;28;20048;-95
2023/01/14 07:16:40;;;;;;;21.97;2.30;;;;;;;4.69;100.00;100787.00;5045668;28;20299;-94
2023/01/14 07:19:11;;;;;;;28.08;3.33;;;;;;;4.69;100.00;100780.88;5053356;28;20112;-91
2023/01/14 07:21:36;;;;;;;22.20;2.10;;;;;;;4.80;100.00;100789.97;5035613;28;20444;-92
2023/01/14 07:24:02;;;;;;;30.27;3.23;;;;;;;4.87;100.00;100784.56;5053761;28;20032;-92
2023/01/14 07:26:27;;;;;;;18.77;2.60;;;;;;;4.82;100.00;100761.34;5063766;28;20033;-92
2023/01/14 07:28:54;;;;;;;25.03;2.73;;;;;;;4.87;100.00;100772.13;5055486;28;20422;-91
2023/01/14 07:31:27;;;;;;;18.55;2.45;;;;;;;4.99;100.00;100780.97;5043597;28;20047;-92
2023/01/14 07:33:52;;;;;;;18.37;2.67;;;;;;;4.85;100.00;100760.91;5054069;28;20017;-87
2023/01/14 07:36:19;;;;;;;16.30;2.50;;;;;;;5.02;100.00;100781.56;5054215;28;20271;-87
2023/01/14 07:38:44;;;;;;;15.83;2.57;;;;;;;4.96;100.00;100768.13;5050170;28;20029;-86
2023/01/14 07:41:11;;;;;;;15.30;2.03;;;;;;;5.03;100.00;100783.19;5026021;28;20798;-85
2023/01/14 07:43:37;;;;;;;13.60;2.10;;;;;;;4.98;100.00;100749.34;5033192;28;20155;-84
2023/01/14 07:46:03;;;;;;;19.60;2.53;;;;;;;5.03;100.00;100744.16;5050141;28;20108;-85
2023/01/14 07:48:29;;;;;;;16.25;2.95;;;;;;;5.03;100.00;100740.69;5032665;28;20033;-86
2023/01/14 07:50:56;;;;;;;23.80;4.47;;;;;;;5.09;100.00;100730.00;5049172;28;20032;-87
2023/01/14 07:53:22;;;;;;;20.30;3.97;;;;;;;5.00;100.00;100707.44;5051238;28;20282;-85
2023/01/14 07:55:50;;;;;;;22.52;4.20;;;;;;;5.11;100.00;100708.53;5049579;28;20104;-85
2023/01/14 07:58:16;;;;;;;13.77;2.15;;;;;;;5.08;100.00;100701.00;5048229;28;20069;-86
2023/01/14 08:00:42;;;;;;;16.23;2.53;;;;;;;5.08;100.00;100685.06;5046736;28;20025;-85
2023/01/14 08:03:07;;;;;;;12.05;2.55;;;;;;;5.08;100.00;100685.06;5056010;28;20094;-84
2023/01/14 08:05:36;;;;;;;14.10;2.20;;;;;;;5.12;100.00;100675.59;5064144;28;20017;-85
2023/01/14 08:08:01;;;;;;;17.88;2.42;;;;;;;5.15;100.00;100670.66;5060662;28;20115;-85
2023/01/14 08:10:26;;;;;;;15.43;2.53;;;;;;;5.20;100.00;100654.03;5064880;28;20061;-86
2023/01/14 08:12:52;;;;;;;16.07;2.80;;;;;;;5.05;100.00;100616.47;5051943;28;20020;-85
2023/01/14 08:15:18;;;;;;;8.00;1.87;;;;;;;5.30;100.00;100648.19;5050331;28;20029;-86
2023/01/14 08:17:43;;;;;;;15.02;2.88;;;;;;;5.22;100.00;100628.06;5052154;28;20025;-86
2023/01/14 08:20:09;;;;;;;9.00;1.90;;;;;;;5.33;100.00;100628.31;5048049;28;20040;-84
2023/01/14 08:22:37;;;;;;;9.38;2.20;;;;;;;5.27;100.00;100616.75;5045312;28;20059;-85
2023/01/14 08:25:03;;;;;;;13.05;2.28;;;;;;;5.26;100.00;100605.31;5047935;28;20446;-86
2023/01/14 08:27:29;;;;;;;11.27;1.55;;;;;;;5.29;100.00;100593.41;5048830;28;20028;-86
2023/01/14 08:29:55;;;;;;;13.40;1.93;;;;;;;5.42;100.00;100606.50;5051198;28;20163;-87
2023/01/14 08:32:21;;;;;;;12.32;2.00;;;;;;;5.40;100.00;100589.97;5050702;28;20078;-88
2023/01/14 08:34:46;;;;;;;10.93;1.92;;;;;;;5.41;100.00;100574.84;5051968;28;20040;-87
2023/01/14 08:37:12;;;;;;;5.83;1.20;;;;;;;5.50;100.00;100570.78;5050429;28;20037;-88
2023/01/14 08:39:37;;;;;;;6.10;1.40;;;;;;;5.49;100.00;100557.75;5052201;28;20112;-87
2023/01/14 08:42:03;;;;;;;8.30;1.17;;;;;;;5.51;100.00;100561.78;5050961;28;20396;-87
2023/01/14 08:44:28;;;;;;;8.25;1.35;;;;;;;5.60;100.00;100556.94;5049835;28;20036;-87
2023/01/14 08:46:53;;;;;;;7.33;1.30;;;;;;;5.63;100.00;100553.03;5051750;28;20502;-87
2023/01/14 08:49:19;;;;;;;9.53;1.53;;;;;;;5.65;100.00;100524.38;5051216;28;20468;-87
2023/01/14 08:51:44;;;;;;;8.70;1.20;;;;;;;5.67;100.00;100547.00;5051243;28;20031;-87
2023/01/14 08:54:09;;;;;;;6.10;1.17;;;;;;;5.64;100.00;100520.09;5052258;28;20021;-86
2023/01/14 08:56:35;;;;;;;9.93;1.60;;;;;;;5.74;100.00;100514.97;5061547;28;20089;-86
2023/01/14 08:59:01;;;;;;;8.97;1.80;;;;;;;5.71;100.00;100499.47;5067193;28;20108;-87
2023/01/14 09:01:27;;;;;;;7.60;1.38;;;;;;;5.74;100.00;100491.06;5055865;28;20029;-86
2023/01/14 09:03:57;;;;;;;10.97;1.40;;;;;;;5.74;100.00;100481.25;5057503;28;20081;-87
2023/01/14 09:06:22;;;;;;;8.43;1.63;;;;;;;5.75;100.00;100471.41;5066593;28;20091;-87
2023/01/14 09:19:47;;;;;;;10.33;1.23;;;;;;;5.87;100.00;100453.56;5663958;22;20071;-86
2023/01/14 09:22:17;;;;;;;7.43;1.20;;;;;;;5.90;100.00;100439.78;5734216;22;20008;-86
2023/01/14 09:24:43;;;;;;;12.68;1.88;;;;;;;5.83;100.00;100425.00;5034741;28;20040;-86
2023/01/14 09:27:08;;;;;;;10.73;1.30;;;;;;;5.88;100.00;100428.59;5034507;28;20665;-86
2023/01/14 09:29:33;;;;;;;9.13;1.63;;;;;;;5.90;100.00;100421.19;5031602;28;20919;-86
2023/01/14 09:31:59;;;;;;;6.32;1.15;;;;;;;6.01;100.00;100424.09;5036287;28;20026;-87
2023/01/14 09:34:24;;;;;;;6.77;1.10;;;;;;;6.02;100.00;100417.72;5037258;28;20022;-87
2023/01/14 09:36:50;;;;;;;16.40;1.70;;;;;;;6.01;100.00;100406.25;5035406;28;20178;-88
2023/01/14 09:39:16;;;;;;;6.10;1.02;;;;;;;5.97;100.00;100383.00;5034987;28;20050;-87
2023/01/14 09:41:50;;;;;;;11.52;1.30;;;;;;;6.05;100.00;100393.28;5038202;28;20453;-87
2023/01/14 09:44:16;;;;;;;11.63;1.60;;;;;;;6.08;100.00;100397.34;5033388;28;20479;-88
2023/01/14 09:46:41;;;;;;;11.60;1.23;;;;;;;6.10;100.00;100384.59;5034819;28;20021;-86
2023/01/14 09:49:08;;;;;;;14.07;2.30;;;;;;;6.10;100.00;100369.44;5034088;28;20113;-87
2023/01/14 09:52:01;;;;;;;8.40;1.30;;;;;;;6.15;100.00;100358.06;5034531;28;20026;-87
2023/01/14 09:54:40;;;;;;;7.95;1.58;;;;;;;6.12;100.00;100348.72;5034980;28;20021;-87
2023/01/14 09:57:33;;;;;;;9.88;1.80;;;;;;;6.03;100.00;100342.16;5035683;28;20061;-87
2023/01/14 10:00:09;;;;;;;9.02;1.33;;;;;;;6.22;100.00;100359.53;5036617;28;20045;-87
2023/01/14 10:02:51;;;;;;;10.30;1.65;;;;;;;6.25;100.00;100352.94;5038656;28;20099;-86
2023/01/14 10:05:29;;;;;;;5.50;1.20;;;;;;;6.26;100.00;100346.56;5036034;28;20025;-87
2023/01/14 10:07:57;;;;;;;9.27;1.90;;;;;;;6.32;100.00;100324.31;5038049;28;20276;-87
2023/01/14 10:10:29;;;;;;;11.13;1.80;;;;;;;6.38;100.00;100325.22;5036312;28;20028;-87
2023/01/14 10:12:57;;;;;;;13.00;1.70;;;;;;;6.34;100.00;100314.22;5035849;28;20080;-87
2023/01/14 10:16:04;;;;;;;8.18;1.40;;;;;;;6.43;100.00;100301.31;5035897;28;20052;-88
2023/01/14 10:18:54;;;;;;;9.55;1.23;;;;;;;6.46;100.00;100284.88;4955919;29;20414;-88
2023/01/14 10:21:31;;;;;;;8.85;1.73;;;;;;;6.50;100.00;100283.34;4942070;28;20076;-86
2023/01/14 10:23:57;;;;;;;7.40;1.60;;;;;;;6.48;100.00;100274.78;4975752;28;20049;-86
2023/01/14 10:26:31;;;;;;;11.30;1.30;;;;;;;6.52;100.00;100251.16;5017928;28;20036;-86
2023/01/14 10:29:08;;;;;;;10.23;1.67;;;;;;;6.59;100.00;100257.13;5026312;28;20037;-86
2023/01/14 10:31:36;;;;;;;8.10;1.38;;;;;;;6.63;100.00;100238.78;5022534;28;20156;-85
2023/01/14 10:34:01;;;;;;;9.80;1.40;;;;;;;6.60;100.00;100210.00;5023722;28;20452;-86
2023/01/14 10:36:30;;;;;;;12.10;1.95;;;;;;;6.74;100.00;100226.41;5046764;28;20026;-87
2023/01/14 10:39:01;;;;;;;8.70;1.75;;;;;;;6.70;100.00;100223.44;5041535;28;20018;-86
2023/01/14 10:44:34;;;;;;;5.73;1.10;;;;;;;6.81;100.00;100211.06;5047813;28;20303;-86
2023/01/14 10:47:06;;;;;;;4.20;0.95;;;;;;;6.85;100.00;100206.03;5045838;28;20025;-86
2023/01/14 10:49:40;;;;;;;8.88;1.52;;;;;;;6.88;100.00;100193.03;5049878;28;20285;-87
2023/01/14 10:52:24;;;;;;;7.95;1.58;;;;;;;6.91;100.00;100183.75;5039477;28;20101;-87
2023/01/14 10:54:55;;;;;;;8.95;1.35;;;;;;;6.94;100.00;100169.91;5037166;28;20044;-85
2023/01/14 10:57:21;;;;;;;3.58;1.02;;;;;;;6.94;100.00;100164.59;5035783;28;20033;-86
2023/01/14 10:59:54;;;;;;;7.97;1.10;;;;;;;6.96;100.00;100157.97;5036344;28;20025;-86
2023/01/14 11:02:32;;;;;;;9.30;1.05;;;;;;;7.02;100.00;100160.72;5036808;28;20674;-86
2023/01/14 11:04:57;;;;;;;6.20;1.15;;;;;;;6.99;100.00;100140.69;5034196;28;20044;-86
2023/01/14 11:07:35;;;;;;;5.83;1.30;;;;;;;7.10;100.00;100130.94;5034288;28;20041;-86
2023/01/14 11:10:15;;;;;;;8.68;0.88;;;;;;;7.10;100.00;100131.75;5036634;28;20048;-88
2023/01/14 11:12:41;;;;;;;6.97;1.08;;;;;;;7.16;100.00;100121.94;5033921;28;20095;-88
2023/01/14 11:15:34;;;;;;;3.33;1.17;;;;;;;7.18;100.00;100108.34;5033783;28;20037;-87
2023/01/14 11:18:21;;;;;;;5.18;1.20;;;;;;;7.15;100.00;100101.69;5034883;28;20032;-87
2023/01/14 11:21:13;;;;;;;6.43;1.40;;;;;;;7.21;100.00;100100.66;5034643;28;20192;-87
2023/01/14 11:23:42;;;;;;;4.57;0.90;;;;;;;7.22;100.00;100096.16;5033402;28;20112;-87
2023/01/14 11:26:28;;;;;;;6.20;1.20;;;;;;;7.25;100.00;100106.31;5034329;28;20026;-87
2023/01/14 11:29:07;;;;;;;6.10;1.20;;;;;;;7.21;100.00;100070.56;5030639;28;20025;-88
2023/01/14 11:31:38;;;;;;;6.28;1.38;;;;;;;7.27;100.00;100070.34;5013805;28;20121;-86
2023/01/14 11:34:04;;;;;;;4.90;1.20;;;;;;;7.31;100.00;100057.31;5020121;28;20061;-87
2023/01/14 11:36:32;;;;;;;2.67;0.98;;;;;;;7.33;100.00;100068.50;5035290;28;20018;-87
2023/01/14 11:38:59;;;;;;;3.20;1.00;;;;;;;7.31;100.00;100043.97;5029433;28;20409;-85
2023/01/14 11:41:40;;;;;;;4.53;1.27;;;;;;;7.39;100.00;100046.19;5033842;28;20040;-86
2023/01/14 11:44:17;;;;;;;4.65;1.33;;;;;;;7.42;100.00;100053.66;5033694;28;20030;-87
2023/01/14 11:46:44;;;;;;;2.92;1.30;;;;;;;7.45;100.00;100051.56;5034263;28;20026;-87
2023/01/14 11:49:12;;;;;;;3.95;0.90;;;;;;;7.45;100.00;100039.00;5033403;28;20028;-87
2023/01/14 11:51:40;;;;;;;2.97;1.17;;;;;;;7.44;100.00;100029.41;5028230;28;20408;-86
2023/01/14 11:54:17;;;;;;;3.37;1.00;;;;;;;7.42;100.00;100019.03;5035683;28;20022;-89
2023/01/14 11:56:44;;;;;;;2.90;1.07;;;;;;;7.40;100.00;100021.13;5038567;28;20276;-88
2023/01/14 11:59:15;;;;;;;3.40;0.82;;;;;;;7.49;100.00;100021.47;5035951;28;20037;-85
2023/01/14 12:01:48;;;;;;;2.42;0.90;;;;;;;7.49;100.00;100010.78;5053937;28;20018;-87
2023/01/14 12:04:20;;;;;;;2.53;1.00;;;;;;;7.49;100.00;100001.97;5032560;28;20044;-87
2023/01/14 12:06:56;;;;;;;2.95;1.10;;;;;;;7.46;100.00;99986.53;5036623;28;20029;-87
2023/01/14 12:09:44;;;;;;;4.05;1.00;;;;;;;7.50;100.00;99999.06;5042855;28;20021;-86
2023/01/14 12:12:15;;;;;;;4.13;0.87;;;;;;;7.46;100.00;100002.53;5044915;28;20036;-88
2023/01/14 12:17:49;;;;;;;6.50;1.00;;;;;;;7.50;100.00;99963.59;5038704;28;20417;-87